<?xml version="1.0" encoding="UTF-8" standalone="no" ?>
<gpx xmlns="http://www.topografix.com/GPX/1/1" xmlns:xsi="http://www.w3.org/2001/XMLSchema-instance" xsi:schemaLocation="http://www.topografix.com/GPX/1/1 http://www.topografix.com/GPX/1/1/gpx.xsd" version="1.1" creator="VisuGPX - https://www.visugpx.com">
  <metadata>
    <name>Fontainebleau. Vers la marre des Béorlots.</name>
    <desc><![CDATA[Promenade très facile, sur la platière des Béorlots, au départ du carrefour des Grands Feuillards. On fera le petit détour vers la marre (il y en a une deuxième à proximité).]]></desc>
  </metadata>
  <trk>
    <name><![CDATA[2019-10-23 16:18:41]]></name>
    <trkseg>
      <trkpt lat="48.37539" lon="2.62331">
        <ele>127.03</ele>
        <time>2019-10-23T12:08:12Z</time>
      </trkpt>
      <trkpt lat="48.3754" lon="2.62332">
        <ele>129.92</ele>
        <time>2019-10-23T12:08:36Z</time>
      </trkpt>
      <trkpt lat="48.37544" lon="2.62337">
        <ele>132.32</ele>
        <time>2019-10-23T12:09:03Z</time>
      </trkpt>
      <trkpt lat="48.37549" lon="2.62337">
        <ele>134.24</ele>
        <time>2019-10-23T12:09:28Z</time>
      </trkpt>
      <trkpt lat="48.3755" lon="2.62336">
        <ele>134.24</ele>
        <time>2019-10-23T12:09:43Z</time>
      </trkpt>
      <trkpt lat="48.37545" lon="2.62328">
        <ele>135.2</ele>
        <time>2019-10-23T12:10:00Z</time>
      </trkpt>
      <trkpt lat="48.37524" lon="2.62318">
        <ele>128.47</ele>
        <time>2019-10-23T12:10:19Z</time>
      </trkpt>
      <trkpt lat="48.3751" lon="2.62314">
        <ele>121.26</ele>
        <time>2019-10-23T12:10:35Z</time>
      </trkpt>
      <trkpt lat="48.37495" lon="2.62311">
        <ele>112.61</ele>
        <time>2019-10-23T12:10:54Z</time>
      </trkpt>
      <trkpt lat="48.37478" lon="2.62313">
        <ele>111.17</ele>
        <time>2019-10-23T12:11:08Z</time>
      </trkpt>
      <trkpt lat="48.37466" lon="2.62308">
        <ele>112.13</ele>
        <time>2019-10-23T12:11:22Z</time>
      </trkpt>
      <trkpt lat="48.3745" lon="2.62305">
        <ele>106.84</ele>
        <time>2019-10-23T12:11:39Z</time>
      </trkpt>
      <trkpt lat="48.37435" lon="2.62304">
        <ele>104.44</ele>
        <time>2019-10-23T12:11:54Z</time>
      </trkpt>
      <trkpt lat="48.37419" lon="2.62307">
        <ele>110.69</ele>
        <time>2019-10-23T12:12:09Z</time>
      </trkpt>
      <trkpt lat="48.37409" lon="2.62305">
        <ele>112.13</ele>
        <time>2019-10-23T12:12:21Z</time>
      </trkpt>
      <trkpt lat="48.37399" lon="2.62302">
        <ele>112.13</ele>
        <time>2019-10-23T12:12:36Z</time>
      </trkpt>
      <trkpt lat="48.37384" lon="2.62304">
        <ele>115.98</ele>
        <time>2019-10-23T12:12:52Z</time>
      </trkpt>
      <trkpt lat="48.3737" lon="2.62306">
        <ele>115.01</ele>
        <time>2019-10-23T12:13:06Z</time>
      </trkpt>
      <trkpt lat="48.3736" lon="2.62305">
        <ele>112.61</ele>
        <time>2019-10-23T12:13:19Z</time>
      </trkpt>
      <trkpt lat="48.37353" lon="2.62302">
        <ele>110.21</ele>
        <time>2019-10-23T12:13:30Z</time>
      </trkpt>
      <trkpt lat="48.37341" lon="2.62298">
        <ele>108.77</ele>
        <time>2019-10-23T12:13:43Z</time>
      </trkpt>
      <trkpt lat="48.37328" lon="2.62299">
        <ele>107.81</ele>
        <time>2019-10-23T12:13:57Z</time>
      </trkpt>
      <trkpt lat="48.37316" lon="2.62297">
        <ele>110.21</ele>
        <time>2019-10-23T12:14:10Z</time>
      </trkpt>
      <trkpt lat="48.37303" lon="2.62296">
        <ele>114.05</ele>
        <time>2019-10-23T12:14:24Z</time>
      </trkpt>
      <trkpt lat="48.37293" lon="2.62294">
        <ele>110.69</ele>
        <time>2019-10-23T12:14:37Z</time>
      </trkpt>
      <trkpt lat="48.37282" lon="2.62291">
        <ele>105.4</ele>
        <time>2019-10-23T12:14:50Z</time>
      </trkpt>
      <trkpt lat="48.37271" lon="2.62291">
        <ele>102.52</ele>
        <time>2019-10-23T12:15:04Z</time>
      </trkpt>
      <trkpt lat="48.37259" lon="2.62292">
        <ele>100.11</ele>
        <time>2019-10-23T12:15:17Z</time>
      </trkpt>
      <trkpt lat="48.37246" lon="2.62292">
        <ele>99.15</ele>
        <time>2019-10-23T12:15:31Z</time>
      </trkpt>
      <trkpt lat="48.37232" lon="2.6229">
        <ele>98.19</ele>
        <time>2019-10-23T12:15:47Z</time>
      </trkpt>
      <trkpt lat="48.3722" lon="2.62288">
        <ele>102.52</ele>
        <time>2019-10-23T12:16:00Z</time>
      </trkpt>
      <trkpt lat="48.37206" lon="2.62284">
        <ele>103.96</ele>
        <time>2019-10-23T12:16:14Z</time>
      </trkpt>
      <trkpt lat="48.37194" lon="2.6228">
        <ele>104.92</ele>
        <time>2019-10-23T12:16:30Z</time>
      </trkpt>
      <trkpt lat="48.37186" lon="2.62279">
        <ele>108.29</ele>
        <time>2019-10-23T12:16:38Z</time>
      </trkpt>
      <trkpt lat="48.37173" lon="2.62281">
        <ele>109.25</ele>
        <time>2019-10-23T12:16:48Z</time>
      </trkpt>
      <trkpt lat="48.37165" lon="2.62277">
        <ele>103.96</ele>
        <time>2019-10-23T12:17:01Z</time>
      </trkpt>
      <trkpt lat="48.37153" lon="2.62278">
        <ele>103.96</ele>
        <time>2019-10-23T12:17:15Z</time>
      </trkpt>
      <trkpt lat="48.37144" lon="2.62278">
        <ele>97.71</ele>
        <time>2019-10-23T12:17:29Z</time>
      </trkpt>
      <trkpt lat="48.37132" lon="2.62275">
        <ele>92.42</ele>
        <time>2019-10-23T12:17:43Z</time>
      </trkpt>
      <trkpt lat="48.37118" lon="2.62271">
        <ele>88.58</ele>
        <time>2019-10-23T12:17:58Z</time>
      </trkpt>
      <trkpt lat="48.37104" lon="2.62269">
        <ele>87.62</ele>
        <time>2019-10-23T12:18:12Z</time>
      </trkpt>
      <trkpt lat="48.3709" lon="2.62265">
        <ele>87.62</ele>
        <time>2019-10-23T12:18:28Z</time>
      </trkpt>
      <trkpt lat="48.37087" lon="2.62262">
        <ele>91.94</ele>
        <time>2019-10-23T12:18:45Z</time>
      </trkpt>
      <trkpt lat="48.37086" lon="2.62259">
        <ele>95.31</ele>
        <time>2019-10-23T12:19:08Z</time>
      </trkpt>
      <trkpt lat="48.37087" lon="2.62262">
        <ele>103.48</ele>
        <time>2019-10-23T12:19:29Z</time>
      </trkpt>
      <trkpt lat="48.37083" lon="2.62262">
        <ele>104.92</ele>
        <time>2019-10-23T12:19:43Z</time>
      </trkpt>
      <trkpt lat="48.37069" lon="2.62261">
        <ele>103</ele>
        <time>2019-10-23T12:20:00Z</time>
      </trkpt>
      <trkpt lat="48.37056" lon="2.62259">
        <ele>104.92</ele>
        <time>2019-10-23T12:20:16Z</time>
      </trkpt>
      <trkpt lat="48.37043" lon="2.62256">
        <ele>106.84</ele>
        <time>2019-10-23T12:20:32Z</time>
      </trkpt>
      <trkpt lat="48.37031" lon="2.62253">
        <ele>110.21</ele>
        <time>2019-10-23T12:20:44Z</time>
      </trkpt>
      <trkpt lat="48.37018" lon="2.62251">
        <ele>109.25</ele>
        <time>2019-10-23T12:20:57Z</time>
      </trkpt>
      <trkpt lat="48.37005" lon="2.62251">
        <ele>109.73</ele>
        <time>2019-10-23T12:21:11Z</time>
      </trkpt>
      <trkpt lat="48.36994" lon="2.62249">
        <ele>113.57</ele>
        <time>2019-10-23T12:21:23Z</time>
      </trkpt>
      <trkpt lat="48.3699" lon="2.6225">
        <ele>118.86</ele>
        <time>2019-10-23T12:21:32Z</time>
      </trkpt>
      <trkpt lat="48.36984" lon="2.62246">
        <ele>123.67</ele>
        <time>2019-10-23T12:21:50Z</time>
      </trkpt>
      <trkpt lat="48.36977" lon="2.62245">
        <ele>120.78</ele>
        <time>2019-10-23T12:22:04Z</time>
      </trkpt>
      <trkpt lat="48.3697" lon="2.62244">
        <ele>119.82</ele>
        <time>2019-10-23T12:22:20Z</time>
      </trkpt>
      <trkpt lat="48.36956" lon="2.62242">
        <ele>119.34</ele>
        <time>2019-10-23T12:22:36Z</time>
      </trkpt>
      <trkpt lat="48.36946" lon="2.62239">
        <ele>115.98</ele>
        <time>2019-10-23T12:22:51Z</time>
      </trkpt>
      <trkpt lat="48.36936" lon="2.62237">
        <ele>112.13</ele>
        <time>2019-10-23T12:23:05Z</time>
      </trkpt>
      <trkpt lat="48.36925" lon="2.62235">
        <ele>109.73</ele>
        <time>2019-10-23T12:23:20Z</time>
      </trkpt>
      <trkpt lat="48.36914" lon="2.62234">
        <ele>109.73</ele>
        <time>2019-10-23T12:23:33Z</time>
      </trkpt>
      <trkpt lat="48.369" lon="2.62232">
        <ele>115.01</ele>
        <time>2019-10-23T12:23:47Z</time>
      </trkpt>
      <trkpt lat="48.36886" lon="2.62233">
        <ele>120.3</ele>
        <time>2019-10-23T12:24:01Z</time>
      </trkpt>
      <trkpt lat="48.36876" lon="2.62232">
        <ele>120.78</ele>
        <time>2019-10-23T12:24:12Z</time>
      </trkpt>
      <trkpt lat="48.36864" lon="2.62228">
        <ele>121.26</ele>
        <time>2019-10-23T12:24:27Z</time>
      </trkpt>
      <trkpt lat="48.36854" lon="2.62225">
        <ele>121.26</ele>
        <time>2019-10-23T12:24:39Z</time>
      </trkpt>
      <trkpt lat="48.36843" lon="2.62223">
        <ele>118.38</ele>
        <time>2019-10-23T12:24:53Z</time>
      </trkpt>
      <trkpt lat="48.36833" lon="2.62223">
        <ele>117.9</ele>
        <time>2019-10-23T12:25:05Z</time>
      </trkpt>
      <trkpt lat="48.36821" lon="2.62221">
        <ele>116.46</ele>
        <time>2019-10-23T12:25:18Z</time>
      </trkpt>
      <trkpt lat="48.36808" lon="2.62216">
        <ele>116.94</ele>
        <time>2019-10-23T12:25:31Z</time>
      </trkpt>
      <trkpt lat="48.36796" lon="2.62215">
        <ele>114.53</ele>
        <time>2019-10-23T12:25:45Z</time>
      </trkpt>
      <trkpt lat="48.36788" lon="2.62216">
        <ele>110.69</ele>
        <time>2019-10-23T12:25:57Z</time>
      </trkpt>
      <trkpt lat="48.36781" lon="2.62218">
        <ele>108.77</ele>
        <time>2019-10-23T12:26:10Z</time>
      </trkpt>
      <trkpt lat="48.36772" lon="2.6222">
        <ele>109.25</ele>
        <time>2019-10-23T12:26:24Z</time>
      </trkpt>
      <trkpt lat="48.3676" lon="2.62214">
        <ele>109.25</ele>
        <time>2019-10-23T12:26:39Z</time>
      </trkpt>
      <trkpt lat="48.36745" lon="2.62213">
        <ele>106.84</ele>
        <time>2019-10-23T12:26:56Z</time>
      </trkpt>
      <trkpt lat="48.36733" lon="2.62209">
        <ele>108.29</ele>
        <time>2019-10-23T12:27:09Z</time>
      </trkpt>
      <trkpt lat="48.36721" lon="2.62204">
        <ele>106.36</ele>
        <time>2019-10-23T12:27:23Z</time>
      </trkpt>
      <trkpt lat="48.36708" lon="2.62204">
        <ele>103</ele>
        <time>2019-10-23T12:27:39Z</time>
      </trkpt>
      <trkpt lat="48.36692" lon="2.62202">
        <ele>100.11</ele>
        <time>2019-10-23T12:27:57Z</time>
      </trkpt>
      <trkpt lat="48.36677" lon="2.62202">
        <ele>105.88</ele>
        <time>2019-10-23T12:28:13Z</time>
      </trkpt>
      <trkpt lat="48.36663" lon="2.62201">
        <ele>109.25</ele>
        <time>2019-10-23T12:28:28Z</time>
      </trkpt>
      <trkpt lat="48.3665" lon="2.62196">
        <ele>108.77</ele>
        <time>2019-10-23T12:28:42Z</time>
      </trkpt>
      <trkpt lat="48.36638" lon="2.62196">
        <ele>108.77</ele>
        <time>2019-10-23T12:28:57Z</time>
      </trkpt>
      <trkpt lat="48.36626" lon="2.62193">
        <ele>107.81</ele>
        <time>2019-10-23T12:29:11Z</time>
      </trkpt>
      <trkpt lat="48.36615" lon="2.62192">
        <ele>107.32</ele>
        <time>2019-10-23T12:29:24Z</time>
      </trkpt>
      <trkpt lat="48.366" lon="2.62189">
        <ele>106.36</ele>
        <time>2019-10-23T12:29:41Z</time>
      </trkpt>
      <trkpt lat="48.36589" lon="2.62188">
        <ele>105.88</ele>
        <time>2019-10-23T12:29:55Z</time>
      </trkpt>
      <trkpt lat="48.36573" lon="2.62184">
        <ele>117.42</ele>
        <time>2019-10-23T12:30:08Z</time>
      </trkpt>
      <trkpt lat="48.36561" lon="2.62183">
        <ele>116.94</ele>
        <time>2019-10-23T12:30:21Z</time>
      </trkpt>
      <trkpt lat="48.36549" lon="2.62183">
        <ele>112.61</ele>
        <time>2019-10-23T12:30:37Z</time>
      </trkpt>
      <trkpt lat="48.36536" lon="2.62182">
        <ele>114.53</ele>
        <time>2019-10-23T12:30:51Z</time>
      </trkpt>
      <trkpt lat="48.36527" lon="2.62182">
        <ele>113.57</ele>
        <time>2019-10-23T12:31:05Z</time>
      </trkpt>
      <trkpt lat="48.36519" lon="2.62184">
        <ele>111.65</ele>
        <time>2019-10-23T12:31:23Z</time>
      </trkpt>
      <trkpt lat="48.36504" lon="2.62186">
        <ele>110.21</ele>
        <time>2019-10-23T12:31:42Z</time>
      </trkpt>
      <trkpt lat="48.36492" lon="2.62188">
        <ele>111.17</ele>
        <time>2019-10-23T12:31:57Z</time>
      </trkpt>
      <trkpt lat="48.3648" lon="2.62192">
        <ele>110.69</ele>
        <time>2019-10-23T12:32:12Z</time>
      </trkpt>
      <trkpt lat="48.36475" lon="2.62195">
        <ele>118.38</ele>
        <time>2019-10-23T12:32:25Z</time>
      </trkpt>
      <trkpt lat="48.36464" lon="2.62198">
        <ele>122.22</ele>
        <time>2019-10-23T12:32:41Z</time>
      </trkpt>
      <trkpt lat="48.36457" lon="2.62197">
        <ele>122.22</ele>
        <time>2019-10-23T12:32:53Z</time>
      </trkpt>
      <trkpt lat="48.36446" lon="2.622">
        <ele>118.38</ele>
        <time>2019-10-23T12:33:08Z</time>
      </trkpt>
      <trkpt lat="48.36433" lon="2.62202">
        <ele>116.46</ele>
        <time>2019-10-23T12:33:24Z</time>
      </trkpt>
      <trkpt lat="48.36415" lon="2.62207">
        <ele>116.94</ele>
        <time>2019-10-23T12:33:40Z</time>
      </trkpt>
      <trkpt lat="48.36397" lon="2.62211">
        <ele>117.42</ele>
        <time>2019-10-23T12:33:57Z</time>
      </trkpt>
      <trkpt lat="48.36386" lon="2.62209">
        <ele>113.09</ele>
        <time>2019-10-23T12:34:14Z</time>
      </trkpt>
      <trkpt lat="48.36375" lon="2.62212">
        <ele>117.9</ele>
        <time>2019-10-23T12:34:26Z</time>
      </trkpt>
      <trkpt lat="48.36355" lon="2.62217">
        <ele>118.86</ele>
        <time>2019-10-23T12:34:41Z</time>
      </trkpt>
      <trkpt lat="48.36345" lon="2.62219">
        <ele>118.38</ele>
        <time>2019-10-23T12:34:54Z</time>
      </trkpt>
      <trkpt lat="48.36338" lon="2.62223">
        <ele>117.42</ele>
        <time>2019-10-23T12:35:06Z</time>
      </trkpt>
      <trkpt lat="48.36324" lon="2.62227">
        <ele>117.9</ele>
        <time>2019-10-23T12:35:19Z</time>
      </trkpt>
      <trkpt lat="48.36314" lon="2.62229">
        <ele>116.94</ele>
        <time>2019-10-23T12:35:32Z</time>
      </trkpt>
      <trkpt lat="48.36303" lon="2.6223">
        <ele>116.94</ele>
        <time>2019-10-23T12:35:43Z</time>
      </trkpt>
      <trkpt lat="48.36292" lon="2.62232">
        <ele>117.9</ele>
        <time>2019-10-23T12:35:57Z</time>
      </trkpt>
      <trkpt lat="48.3629" lon="2.62234">
        <ele>119.82</ele>
        <time>2019-10-23T12:36:11Z</time>
      </trkpt>
      <trkpt lat="48.36289" lon="2.62237">
        <ele>122.71</ele>
        <time>2019-10-23T12:36:30Z</time>
      </trkpt>
      <trkpt lat="48.36285" lon="2.62235">
        <ele>123.67</ele>
        <time>2019-10-23T12:36:53Z</time>
      </trkpt>
      <trkpt lat="48.36273" lon="2.62239">
        <ele>124.15</ele>
        <time>2019-10-23T12:37:18Z</time>
      </trkpt>
      <trkpt lat="48.36263" lon="2.62234">
        <ele>123.19</ele>
        <time>2019-10-23T12:37:36Z</time>
      </trkpt>
      <trkpt lat="48.36258" lon="2.62222">
        <ele>124.15</ele>
        <time>2019-10-23T12:37:52Z</time>
      </trkpt>
      <trkpt lat="48.36253" lon="2.62212">
        <ele>125.11</ele>
        <time>2019-10-23T12:38:07Z</time>
      </trkpt>
      <trkpt lat="48.3625" lon="2.62207">
        <ele>122.71</ele>
        <time>2019-10-23T12:38:24Z</time>
      </trkpt>
      <trkpt lat="48.36244" lon="2.62201">
        <ele>120.78</ele>
        <time>2019-10-23T12:38:41Z</time>
      </trkpt>
      <trkpt lat="48.36238" lon="2.62192">
        <ele>122.22</ele>
        <time>2019-10-23T12:38:57Z</time>
      </trkpt>
      <trkpt lat="48.36231" lon="2.62181">
        <ele>121.74</ele>
        <time>2019-10-23T12:39:12Z</time>
      </trkpt>
      <trkpt lat="48.36223" lon="2.62168">
        <ele>122.71</ele>
        <time>2019-10-23T12:39:27Z</time>
      </trkpt>
      <trkpt lat="48.36212" lon="2.62155">
        <ele>124.15</ele>
        <time>2019-10-23T12:39:44Z</time>
      </trkpt>
      <trkpt lat="48.36202" lon="2.6214">
        <ele>127.03</ele>
        <time>2019-10-23T12:40:01Z</time>
      </trkpt>
      <trkpt lat="48.36192" lon="2.62127">
        <ele>127.03</ele>
        <time>2019-10-23T12:40:15Z</time>
      </trkpt>
      <trkpt lat="48.36181" lon="2.62107">
        <ele>127.51</ele>
        <time>2019-10-23T12:40:32Z</time>
      </trkpt>
      <trkpt lat="48.3617" lon="2.62091">
        <ele>129.92</ele>
        <time>2019-10-23T12:40:46Z</time>
      </trkpt>
      <trkpt lat="48.36162" lon="2.62082">
        <ele>127.03</ele>
        <time>2019-10-23T12:41:02Z</time>
      </trkpt>
      <trkpt lat="48.36155" lon="2.62074">
        <ele>123.19</ele>
        <time>2019-10-23T12:41:20Z</time>
      </trkpt>
      <trkpt lat="48.36152" lon="2.62071">
        <ele>122.22</ele>
        <time>2019-10-23T12:41:35Z</time>
      </trkpt>
      <trkpt lat="48.36147" lon="2.62063">
        <ele>122.22</ele>
        <time>2019-10-23T12:42:03Z</time>
      </trkpt>
      <trkpt lat="48.3614" lon="2.62048">
        <ele>123.19</ele>
        <time>2019-10-23T12:42:21Z</time>
      </trkpt>
      <trkpt lat="48.36135" lon="2.62042">
        <ele>122.71</ele>
        <time>2019-10-23T12:42:35Z</time>
      </trkpt>
      <trkpt lat="48.36125" lon="2.62034">
        <ele>125.11</ele>
        <time>2019-10-23T12:42:49Z</time>
      </trkpt>
      <trkpt lat="48.36118" lon="2.62023">
        <ele>123.67</ele>
        <time>2019-10-23T12:43:02Z</time>
      </trkpt>
      <trkpt lat="48.36111" lon="2.62014">
        <ele>122.71</ele>
        <time>2019-10-23T12:43:15Z</time>
      </trkpt>
      <trkpt lat="48.36101" lon="2.61999">
        <ele>122.71</ele>
        <time>2019-10-23T12:43:29Z</time>
      </trkpt>
      <trkpt lat="48.36093" lon="2.61988">
        <ele>125.11</ele>
        <time>2019-10-23T12:43:41Z</time>
      </trkpt>
      <trkpt lat="48.36088" lon="2.61979">
        <ele>126.07</ele>
        <time>2019-10-23T12:43:53Z</time>
      </trkpt>
      <trkpt lat="48.36084" lon="2.6198">
        <ele>125.59</ele>
        <time>2019-10-23T12:44:12Z</time>
      </trkpt>
      <trkpt lat="48.3608" lon="2.61975">
        <ele>124.63</ele>
        <time>2019-10-23T12:44:34Z</time>
      </trkpt>
      <trkpt lat="48.36071" lon="2.61961">
        <ele>125.59</ele>
        <time>2019-10-23T12:44:49Z</time>
      </trkpt>
      <trkpt lat="48.36062" lon="2.61952">
        <ele>124.63</ele>
        <time>2019-10-23T12:45:04Z</time>
      </trkpt>
      <trkpt lat="48.36054" lon="2.61941">
        <ele>123.67</ele>
        <time>2019-10-23T12:45:18Z</time>
      </trkpt>
      <trkpt lat="48.36046" lon="2.61928">
        <ele>121.74</ele>
        <time>2019-10-23T12:45:31Z</time>
      </trkpt>
      <trkpt lat="48.36038" lon="2.61915">
        <ele>117.9</ele>
        <time>2019-10-23T12:45:46Z</time>
      </trkpt>
      <trkpt lat="48.36029" lon="2.61903">
        <ele>118.86</ele>
        <time>2019-10-23T12:45:59Z</time>
      </trkpt>
      <trkpt lat="48.36017" lon="2.61885">
        <ele>121.26</ele>
        <time>2019-10-23T12:46:12Z</time>
      </trkpt>
      <trkpt lat="48.36006" lon="2.61871">
        <ele>118.86</ele>
        <time>2019-10-23T12:46:29Z</time>
      </trkpt>
      <trkpt lat="48.35998" lon="2.61859">
        <ele>115.98</ele>
        <time>2019-10-23T12:46:43Z</time>
      </trkpt>
      <trkpt lat="48.35984" lon="2.61839">
        <ele>119.82</ele>
        <time>2019-10-23T12:46:59Z</time>
      </trkpt>
      <trkpt lat="48.35974" lon="2.61826">
        <ele>123.19</ele>
        <time>2019-10-23T12:47:13Z</time>
      </trkpt>
      <trkpt lat="48.35967" lon="2.61815">
        <ele>122.71</ele>
        <time>2019-10-23T12:47:26Z</time>
      </trkpt>
      <trkpt lat="48.35958" lon="2.61799">
        <ele>122.71</ele>
        <time>2019-10-23T12:47:40Z</time>
      </trkpt>
      <trkpt lat="48.35949" lon="2.61789">
        <ele>122.22</ele>
        <time>2019-10-23T12:47:53Z</time>
      </trkpt>
      <trkpt lat="48.35941" lon="2.61778">
        <ele>119.34</ele>
        <time>2019-10-23T12:48:06Z</time>
      </trkpt>
      <trkpt lat="48.35934" lon="2.61767">
        <ele>120.78</ele>
        <time>2019-10-23T12:48:20Z</time>
      </trkpt>
      <trkpt lat="48.35926" lon="2.61757">
        <ele>120.3</ele>
        <time>2019-10-23T12:48:34Z</time>
      </trkpt>
      <trkpt lat="48.35919" lon="2.61748">
        <ele>119.34</ele>
        <time>2019-10-23T12:48:46Z</time>
      </trkpt>
      <trkpt lat="48.35908" lon="2.61733">
        <ele>124.15</ele>
        <time>2019-10-23T12:49:00Z</time>
      </trkpt>
      <trkpt lat="48.359" lon="2.61725">
        <ele>124.15</ele>
        <time>2019-10-23T12:49:12Z</time>
      </trkpt>
      <trkpt lat="48.35893" lon="2.61717">
        <ele>121.74</ele>
        <time>2019-10-23T12:49:25Z</time>
      </trkpt>
      <trkpt lat="48.3589" lon="2.61708">
        <ele>124.15</ele>
        <time>2019-10-23T12:49:38Z</time>
      </trkpt>
      <trkpt lat="48.35891" lon="2.61709">
        <ele>126.55</ele>
        <time>2019-10-23T12:49:52Z</time>
      </trkpt>
      <trkpt lat="48.35889" lon="2.61704">
        <ele>128.95</ele>
        <time>2019-10-23T12:50:07Z</time>
      </trkpt>
      <trkpt lat="48.3589" lon="2.61698">
        <ele>125.59</ele>
        <time>2019-10-23T12:50:21Z</time>
      </trkpt>
      <trkpt lat="48.35892" lon="2.61685">
        <ele>122.71</ele>
        <time>2019-10-23T12:50:38Z</time>
      </trkpt>
      <trkpt lat="48.35896" lon="2.61687">
        <ele>117.9</ele>
        <time>2019-10-23T12:51:12Z</time>
      </trkpt>
      <trkpt lat="48.35902" lon="2.61674">
        <ele>120.78</ele>
        <time>2019-10-23T12:51:35Z</time>
      </trkpt>
      <trkpt lat="48.35907" lon="2.6166">
        <ele>120.3</ele>
        <time>2019-10-23T12:51:53Z</time>
      </trkpt>
      <trkpt lat="48.35912" lon="2.61648">
        <ele>120.78</ele>
        <time>2019-10-23T12:52:10Z</time>
      </trkpt>
      <trkpt lat="48.35918" lon="2.61637">
        <ele>118.86</ele>
        <time>2019-10-23T12:52:24Z</time>
      </trkpt>
      <trkpt lat="48.35923" lon="2.61621">
        <ele>119.82</ele>
        <time>2019-10-23T12:52:41Z</time>
      </trkpt>
      <trkpt lat="48.3593" lon="2.61602">
        <ele>125.11</ele>
        <time>2019-10-23T12:52:57Z</time>
      </trkpt>
      <trkpt lat="48.35934" lon="2.61592">
        <ele>126.07</ele>
        <time>2019-10-23T12:53:10Z</time>
      </trkpt>
      <trkpt lat="48.3594" lon="2.61579">
        <ele>125.59</ele>
        <time>2019-10-23T12:53:23Z</time>
      </trkpt>
      <trkpt lat="48.35946" lon="2.61565">
        <ele>123.67</ele>
        <time>2019-10-23T12:53:37Z</time>
      </trkpt>
      <trkpt lat="48.3595" lon="2.61553">
        <ele>125.11</ele>
        <time>2019-10-23T12:53:48Z</time>
      </trkpt>
      <trkpt lat="48.35957" lon="2.61539">
        <ele>125.11</ele>
        <time>2019-10-23T12:54:03Z</time>
      </trkpt>
      <trkpt lat="48.35961" lon="2.61532">
        <ele>121.74</ele>
        <time>2019-10-23T12:54:16Z</time>
      </trkpt>
      <trkpt lat="48.35969" lon="2.61517">
        <ele>119.34</ele>
        <time>2019-10-23T12:54:31Z</time>
      </trkpt>
      <trkpt lat="48.35973" lon="2.61506">
        <ele>117.42</ele>
        <time>2019-10-23T12:54:42Z</time>
      </trkpt>
      <trkpt lat="48.35979" lon="2.61496">
        <ele>115.01</ele>
        <time>2019-10-23T12:54:54Z</time>
      </trkpt>
      <trkpt lat="48.35989" lon="2.61478">
        <ele>113.57</ele>
        <time>2019-10-23T12:55:11Z</time>
      </trkpt>
      <trkpt lat="48.35995" lon="2.61465">
        <ele>111.17</ele>
        <time>2019-10-23T12:55:27Z</time>
      </trkpt>
      <trkpt lat="48.36003" lon="2.61449">
        <ele>112.13</ele>
        <time>2019-10-23T12:55:41Z</time>
      </trkpt>
      <trkpt lat="48.36009" lon="2.61425">
        <ele>121.26</ele>
        <time>2019-10-23T12:55:56Z</time>
      </trkpt>
      <trkpt lat="48.36014" lon="2.61416">
        <ele>119.82</ele>
        <time>2019-10-23T12:56:11Z</time>
      </trkpt>
      <trkpt lat="48.36019" lon="2.61403">
        <ele>121.74</ele>
        <time>2019-10-23T12:56:24Z</time>
      </trkpt>
      <trkpt lat="48.36025" lon="2.61393">
        <ele>119.34</ele>
        <time>2019-10-23T12:56:36Z</time>
      </trkpt>
      <trkpt lat="48.36033" lon="2.61375">
        <ele>117.9</ele>
        <time>2019-10-23T12:56:53Z</time>
      </trkpt>
      <trkpt lat="48.36039" lon="2.6136">
        <ele>116.94</ele>
        <time>2019-10-23T12:57:09Z</time>
      </trkpt>
      <trkpt lat="48.36046" lon="2.61346">
        <ele>117.42</ele>
        <time>2019-10-23T12:57:23Z</time>
      </trkpt>
      <trkpt lat="48.36052" lon="2.61332">
        <ele>119.34</ele>
        <time>2019-10-23T12:57:38Z</time>
      </trkpt>
      <trkpt lat="48.36059" lon="2.61315">
        <ele>119.34</ele>
        <time>2019-10-23T12:57:54Z</time>
      </trkpt>
      <trkpt lat="48.36067" lon="2.613">
        <ele>119.34</ele>
        <time>2019-10-23T12:58:10Z</time>
      </trkpt>
      <trkpt lat="48.36076" lon="2.61282">
        <ele>119.34</ele>
        <time>2019-10-23T12:58:27Z</time>
      </trkpt>
      <trkpt lat="48.36081" lon="2.61273">
        <ele>115.98</ele>
        <time>2019-10-23T12:58:41Z</time>
      </trkpt>
      <trkpt lat="48.36088" lon="2.61261">
        <ele>112.61</ele>
        <time>2019-10-23T12:58:56Z</time>
      </trkpt>
      <trkpt lat="48.36094" lon="2.61242">
        <ele>115.01</ele>
        <time>2019-10-23T12:59:12Z</time>
      </trkpt>
      <trkpt lat="48.36098" lon="2.61223">
        <ele>121.74</ele>
        <time>2019-10-23T12:59:27Z</time>
      </trkpt>
      <trkpt lat="48.36106" lon="2.61208">
        <ele>119.34</ele>
        <time>2019-10-23T12:59:42Z</time>
      </trkpt>
      <trkpt lat="48.36113" lon="2.6119">
        <ele>118.38</ele>
        <time>2019-10-23T12:59:57Z</time>
      </trkpt>
      <trkpt lat="48.36125" lon="2.61179">
        <ele>115.98</ele>
        <time>2019-10-23T13:00:11Z</time>
      </trkpt>
      <trkpt lat="48.36128" lon="2.61171">
        <ele>114.53</ele>
        <time>2019-10-23T13:00:24Z</time>
      </trkpt>
      <trkpt lat="48.36131" lon="2.61157">
        <ele>115.01</ele>
        <time>2019-10-23T13:00:36Z</time>
      </trkpt>
      <trkpt lat="48.36139" lon="2.61137">
        <ele>118.86</ele>
        <time>2019-10-23T13:00:52Z</time>
      </trkpt>
      <trkpt lat="48.36145" lon="2.61125">
        <ele>117.42</ele>
        <time>2019-10-23T13:01:08Z</time>
      </trkpt>
      <trkpt lat="48.36149" lon="2.61113">
        <ele>115.98</ele>
        <time>2019-10-23T13:01:22Z</time>
      </trkpt>
      <trkpt lat="48.36156" lon="2.61099">
        <ele>118.38</ele>
        <time>2019-10-23T13:01:36Z</time>
      </trkpt>
      <trkpt lat="48.36162" lon="2.61089">
        <ele>119.34</ele>
        <time>2019-10-23T13:01:49Z</time>
      </trkpt>
      <trkpt lat="48.36166" lon="2.61077">
        <ele>120.78</ele>
        <time>2019-10-23T13:02:09Z</time>
      </trkpt>
      <trkpt lat="48.36168" lon="2.61077">
        <ele>121.26</ele>
        <time>2019-10-23T13:02:38Z</time>
      </trkpt>
      <trkpt lat="48.36173" lon="2.61071">
        <ele>126.55</ele>
        <time>2019-10-23T13:02:59Z</time>
      </trkpt>
      <trkpt lat="48.36175" lon="2.61062">
        <ele>126.07</ele>
        <time>2019-10-23T13:03:13Z</time>
      </trkpt>
      <trkpt lat="48.36177" lon="2.6105">
        <ele>126.55</ele>
        <time>2019-10-23T13:03:37Z</time>
      </trkpt>
      <trkpt lat="48.36181" lon="2.61039">
        <ele>126.55</ele>
        <time>2019-10-23T13:03:53Z</time>
      </trkpt>
      <trkpt lat="48.36188" lon="2.61024">
        <ele>124.15</ele>
        <time>2019-10-23T13:04:12Z</time>
      </trkpt>
      <trkpt lat="48.36195" lon="2.61015">
        <ele>123.67</ele>
        <time>2019-10-23T13:04:25Z</time>
      </trkpt>
      <trkpt lat="48.362" lon="2.61005">
        <ele>123.67</ele>
        <time>2019-10-23T13:04:38Z</time>
      </trkpt>
      <trkpt lat="48.36203" lon="2.60996">
        <ele>123.19</ele>
        <time>2019-10-23T13:04:50Z</time>
      </trkpt>
      <trkpt lat="48.36208" lon="2.60984">
        <ele>122.71</ele>
        <time>2019-10-23T13:05:03Z</time>
      </trkpt>
      <trkpt lat="48.36214" lon="2.60968">
        <ele>123.67</ele>
        <time>2019-10-23T13:05:18Z</time>
      </trkpt>
      <trkpt lat="48.36218" lon="2.60955">
        <ele>127.51</ele>
        <time>2019-10-23T13:05:31Z</time>
      </trkpt>
      <trkpt lat="48.36224" lon="2.60944">
        <ele>126.07</ele>
        <time>2019-10-23T13:05:44Z</time>
      </trkpt>
      <trkpt lat="48.3623" lon="2.60934">
        <ele>123.67</ele>
        <time>2019-10-23T13:05:57Z</time>
      </trkpt>
      <trkpt lat="48.36236" lon="2.60919">
        <ele>122.71</ele>
        <time>2019-10-23T13:06:14Z</time>
      </trkpt>
      <trkpt lat="48.36242" lon="2.60903">
        <ele>128.47</ele>
        <time>2019-10-23T13:06:28Z</time>
      </trkpt>
      <trkpt lat="48.36245" lon="2.60891">
        <ele>127.51</ele>
        <time>2019-10-23T13:06:40Z</time>
      </trkpt>
      <trkpt lat="48.36252" lon="2.60876">
        <ele>124.63</ele>
        <time>2019-10-23T13:06:56Z</time>
      </trkpt>
      <trkpt lat="48.36258" lon="2.60865">
        <ele>123.67</ele>
        <time>2019-10-23T13:07:10Z</time>
      </trkpt>
      <trkpt lat="48.36262" lon="2.60851">
        <ele>123.67</ele>
        <time>2019-10-23T13:07:24Z</time>
      </trkpt>
      <trkpt lat="48.36269" lon="2.60839">
        <ele>123.19</ele>
        <time>2019-10-23T13:07:38Z</time>
      </trkpt>
      <trkpt lat="48.36273" lon="2.60828">
        <ele>123.67</ele>
        <time>2019-10-23T13:07:51Z</time>
      </trkpt>
      <trkpt lat="48.36281" lon="2.60808">
        <ele>125.11</ele>
        <time>2019-10-23T13:08:06Z</time>
      </trkpt>
      <trkpt lat="48.36286" lon="2.60796">
        <ele>120.78</ele>
        <time>2019-10-23T13:08:22Z</time>
      </trkpt>
      <trkpt lat="48.36291" lon="2.60788">
        <ele>116.94</ele>
        <time>2019-10-23T13:08:35Z</time>
      </trkpt>
      <trkpt lat="48.36298" lon="2.60775">
        <ele>115.01</ele>
        <time>2019-10-23T13:08:47Z</time>
      </trkpt>
      <trkpt lat="48.36303" lon="2.60766">
        <ele>114.05</ele>
        <time>2019-10-23T13:08:58Z</time>
      </trkpt>
      <trkpt lat="48.36309" lon="2.60755">
        <ele>115.5</ele>
        <time>2019-10-23T13:09:12Z</time>
      </trkpt>
      <trkpt lat="48.36311" lon="2.60749">
        <ele>115.5</ele>
        <time>2019-10-23T13:09:17Z</time>
      </trkpt>
      <trkpt lat="48.36317" lon="2.60734">
        <ele>118.86</ele>
        <time>2019-10-23T13:09:32Z</time>
      </trkpt>
      <trkpt lat="48.3632" lon="2.60722">
        <ele>123.19</ele>
        <time>2019-10-23T13:09:44Z</time>
      </trkpt>
      <trkpt lat="48.36326" lon="2.60709">
        <ele>121.26</ele>
        <time>2019-10-23T13:10:00Z</time>
      </trkpt>
      <trkpt lat="48.36332" lon="2.60702">
        <ele>119.34</ele>
        <time>2019-10-23T13:10:16Z</time>
      </trkpt>
      <trkpt lat="48.36334" lon="2.60696">
        <ele>125.59</ele>
        <time>2019-10-23T13:10:41Z</time>
      </trkpt>
      <trkpt lat="48.36337" lon="2.60697">
        <ele>127.03</ele>
        <time>2019-10-23T13:11:01Z</time>
      </trkpt>
      <trkpt lat="48.36347" lon="2.6069">
        <ele>126.55</ele>
        <time>2019-10-23T13:11:16Z</time>
      </trkpt>
      <trkpt lat="48.36359" lon="2.60689">
        <ele>125.11</ele>
        <time>2019-10-23T13:11:30Z</time>
      </trkpt>
      <trkpt lat="48.3637" lon="2.60685">
        <ele>121.26</ele>
        <time>2019-10-23T13:11:47Z</time>
      </trkpt>
      <trkpt lat="48.36384" lon="2.60683">
        <ele>120.78</ele>
        <time>2019-10-23T13:12:07Z</time>
      </trkpt>
      <trkpt lat="48.36398" lon="2.60679">
        <ele>122.71</ele>
        <time>2019-10-23T13:12:24Z</time>
      </trkpt>
      <trkpt lat="48.3641" lon="2.6068">
        <ele>123.67</ele>
        <time>2019-10-23T13:12:40Z</time>
      </trkpt>
      <trkpt lat="48.36423" lon="2.60678">
        <ele>126.55</ele>
        <time>2019-10-23T13:12:55Z</time>
      </trkpt>
      <trkpt lat="48.36427" lon="2.60676">
        <ele>126.07</ele>
        <time>2019-10-23T13:13:01Z</time>
      </trkpt>
      <trkpt lat="48.36436" lon="2.60673">
        <ele>123.67</ele>
        <time>2019-10-23T13:13:13Z</time>
      </trkpt>
      <trkpt lat="48.36446" lon="2.60672">
        <ele>124.15</ele>
        <time>2019-10-23T13:13:26Z</time>
      </trkpt>
      <trkpt lat="48.36455" lon="2.6067">
        <ele>122.22</ele>
        <time>2019-10-23T13:13:39Z</time>
      </trkpt>
      <trkpt lat="48.36465" lon="2.60668">
        <ele>120.78</ele>
        <time>2019-10-23T13:13:53Z</time>
      </trkpt>
      <trkpt lat="48.36482" lon="2.60665">
        <ele>126.55</ele>
        <time>2019-10-23T13:14:08Z</time>
      </trkpt>
      <trkpt lat="48.36493" lon="2.60667">
        <ele>125.59</ele>
        <time>2019-10-23T13:14:21Z</time>
      </trkpt>
      <trkpt lat="48.36501" lon="2.60663">
        <ele>124.63</ele>
        <time>2019-10-23T13:14:32Z</time>
      </trkpt>
      <trkpt lat="48.36512" lon="2.60659">
        <ele>124.63</ele>
        <time>2019-10-23T13:14:46Z</time>
      </trkpt>
      <trkpt lat="48.36522" lon="2.6066">
        <ele>123.19</ele>
        <time>2019-10-23T13:14:58Z</time>
      </trkpt>
      <trkpt lat="48.36531" lon="2.60658">
        <ele>121.26</ele>
        <time>2019-10-23T13:15:12Z</time>
      </trkpt>
      <trkpt lat="48.36536" lon="2.60657">
        <ele>119.82</ele>
        <time>2019-10-23T13:15:27Z</time>
      </trkpt>
      <trkpt lat="48.36543" lon="2.60654">
        <ele>121.26</ele>
        <time>2019-10-23T13:15:43Z</time>
      </trkpt>
      <trkpt lat="48.36559" lon="2.60651">
        <ele>120.3</ele>
        <time>2019-10-23T13:16:00Z</time>
      </trkpt>
      <trkpt lat="48.36571" lon="2.6065">
        <ele>117.42</ele>
        <time>2019-10-23T13:16:19Z</time>
      </trkpt>
      <trkpt lat="48.36589" lon="2.60643">
        <ele>116.46</ele>
        <time>2019-10-23T13:16:40Z</time>
      </trkpt>
      <trkpt lat="48.36603" lon="2.60642">
        <ele>111.17</ele>
        <time>2019-10-23T13:17:00Z</time>
      </trkpt>
      <trkpt lat="48.3663" lon="2.60641">
        <ele>112.13</ele>
        <time>2019-10-23T13:17:22Z</time>
      </trkpt>
      <trkpt lat="48.36648" lon="2.60639">
        <ele>113.57</ele>
        <time>2019-10-23T13:17:43Z</time>
      </trkpt>
      <trkpt lat="48.36653" lon="2.60634">
        <ele>120.3</ele>
        <time>2019-10-23T13:17:59Z</time>
      </trkpt>
      <trkpt lat="48.36663" lon="2.60633">
        <ele>120.3</ele>
        <time>2019-10-23T13:18:16Z</time>
      </trkpt>
      <trkpt lat="48.36674" lon="2.60633">
        <ele>122.22</ele>
        <time>2019-10-23T13:18:29Z</time>
      </trkpt>
      <trkpt lat="48.36682" lon="2.60635">
        <ele>120.78</ele>
        <time>2019-10-23T13:18:52Z</time>
      </trkpt>
      <trkpt lat="48.36683" lon="2.60635">
        <ele>119.34</ele>
        <time>2019-10-23T13:19:16Z</time>
      </trkpt>
      <trkpt lat="48.36685" lon="2.60632">
        <ele>120.78</ele>
        <time>2019-10-23T13:19:43Z</time>
      </trkpt>
      <trkpt lat="48.3669" lon="2.60631">
        <ele>120.78</ele>
        <time>2019-10-23T13:20:00Z</time>
      </trkpt>
      <trkpt lat="48.36691" lon="2.60629">
        <ele>123.19</ele>
        <time>2019-10-23T13:20:18Z</time>
      </trkpt>
      <trkpt lat="48.36699" lon="2.6063">
        <ele>124.63</ele>
        <time>2019-10-23T13:20:35Z</time>
      </trkpt>
      <trkpt lat="48.36711" lon="2.60629">
        <ele>123.19</ele>
        <time>2019-10-23T13:20:56Z</time>
      </trkpt>
      <trkpt lat="48.36721" lon="2.60629">
        <ele>123.19</ele>
        <time>2019-10-23T13:21:13Z</time>
      </trkpt>
      <trkpt lat="48.36735" lon="2.60628">
        <ele>122.71</ele>
        <time>2019-10-23T13:21:32Z</time>
      </trkpt>
      <trkpt lat="48.36748" lon="2.60624">
        <ele>120.78</ele>
        <time>2019-10-23T13:21:50Z</time>
      </trkpt>
      <trkpt lat="48.36761" lon="2.60622">
        <ele>119.34</ele>
        <time>2019-10-23T13:22:07Z</time>
      </trkpt>
      <trkpt lat="48.3677" lon="2.60621">
        <ele>116.46</ele>
        <time>2019-10-23T13:22:22Z</time>
      </trkpt>
      <trkpt lat="48.36782" lon="2.60616">
        <ele>117.9</ele>
        <time>2019-10-23T13:22:39Z</time>
      </trkpt>
      <trkpt lat="48.36797" lon="2.60617">
        <ele>125.11</ele>
        <time>2019-10-23T13:22:56Z</time>
      </trkpt>
      <trkpt lat="48.36803" lon="2.60617">
        <ele>125.59</ele>
        <time>2019-10-23T13:23:09Z</time>
      </trkpt>
      <trkpt lat="48.36811" lon="2.60621">
        <ele>123.67</ele>
        <time>2019-10-23T13:23:22Z</time>
      </trkpt>
      <trkpt lat="48.3682" lon="2.60627">
        <ele>122.71</ele>
        <time>2019-10-23T13:23:36Z</time>
      </trkpt>
      <trkpt lat="48.3683" lon="2.60631">
        <ele>123.67</ele>
        <time>2019-10-23T13:23:49Z</time>
      </trkpt>
      <trkpt lat="48.36831" lon="2.60631">
        <ele>123.67</ele>
        <time>2019-10-23T13:23:50Z</time>
      </trkpt>
      <trkpt lat="48.36845" lon="2.60638">
        <ele>125.11</ele>
        <time>2019-10-23T13:24:04Z</time>
      </trkpt>
      <trkpt lat="48.36854" lon="2.60644">
        <ele>125.11</ele>
        <time>2019-10-23T13:24:17Z</time>
      </trkpt>
      <trkpt lat="48.36866" lon="2.60653">
        <ele>122.71</ele>
        <time>2019-10-23T13:24:34Z</time>
      </trkpt>
      <trkpt lat="48.3688" lon="2.60663">
        <ele>122.71</ele>
        <time>2019-10-23T13:24:46Z</time>
      </trkpt>
      <trkpt lat="48.3689" lon="2.60665">
        <ele>119.82</ele>
        <time>2019-10-23T13:25:02Z</time>
      </trkpt>
      <trkpt lat="48.36902" lon="2.60668">
        <ele>116.94</ele>
        <time>2019-10-23T13:25:19Z</time>
      </trkpt>
      <trkpt lat="48.36912" lon="2.60671">
        <ele>113.09</ele>
        <time>2019-10-23T13:25:35Z</time>
      </trkpt>
      <trkpt lat="48.36933" lon="2.60674">
        <ele>119.82</ele>
        <time>2019-10-23T13:25:50Z</time>
      </trkpt>
      <trkpt lat="48.36946" lon="2.60678">
        <ele>120.3</ele>
        <time>2019-10-23T13:26:06Z</time>
      </trkpt>
      <trkpt lat="48.36962" lon="2.60681">
        <ele>118.86</ele>
        <time>2019-10-23T13:26:26Z</time>
      </trkpt>
      <trkpt lat="48.36976" lon="2.60687">
        <ele>121.74</ele>
        <time>2019-10-23T13:26:40Z</time>
      </trkpt>
      <trkpt lat="48.36986" lon="2.60691">
        <ele>119.34</ele>
        <time>2019-10-23T13:26:56Z</time>
      </trkpt>
      <trkpt lat="48.37" lon="2.60689">
        <ele>123.19</ele>
        <time>2019-10-23T13:27:09Z</time>
      </trkpt>
      <trkpt lat="48.37011" lon="2.60693">
        <ele>122.22</ele>
        <time>2019-10-23T13:27:25Z</time>
      </trkpt>
      <trkpt lat="48.37023" lon="2.607">
        <ele>123.19</ele>
        <time>2019-10-23T13:27:41Z</time>
      </trkpt>
      <trkpt lat="48.37042" lon="2.60711">
        <ele>124.15</ele>
        <time>2019-10-23T13:28:00Z</time>
      </trkpt>
      <trkpt lat="48.37056" lon="2.60717">
        <ele>124.63</ele>
        <time>2019-10-23T13:28:17Z</time>
      </trkpt>
      <trkpt lat="48.37066" lon="2.6072">
        <ele>123.67</ele>
        <time>2019-10-23T13:28:31Z</time>
      </trkpt>
      <trkpt lat="48.37077" lon="2.60725">
        <ele>124.15</ele>
        <time>2019-10-23T13:28:44Z</time>
      </trkpt>
      <trkpt lat="48.37084" lon="2.6073">
        <ele>121.74</ele>
        <time>2019-10-23T13:28:56Z</time>
      </trkpt>
      <trkpt lat="48.37098" lon="2.60736">
        <ele>124.63</ele>
        <time>2019-10-23T13:29:11Z</time>
      </trkpt>
      <trkpt lat="48.37103" lon="2.60736">
        <ele>124.63</ele>
        <time>2019-10-23T13:29:26Z</time>
      </trkpt>
      <trkpt lat="48.37102" lon="2.60736">
        <ele>123.19</ele>
        <time>2019-10-23T13:29:45Z</time>
      </trkpt>
      <trkpt lat="48.37106" lon="2.60725">
        <ele>121.74</ele>
        <time>2019-10-23T13:29:59Z</time>
      </trkpt>
      <trkpt lat="48.37111" lon="2.60713">
        <ele>122.22</ele>
        <time>2019-10-23T13:30:12Z</time>
      </trkpt>
      <trkpt lat="48.37114" lon="2.60698">
        <ele>127.51</ele>
        <time>2019-10-23T13:30:26Z</time>
      </trkpt>
      <trkpt lat="48.37119" lon="2.60698">
        <ele>124.15</ele>
        <time>2019-10-23T13:30:39Z</time>
      </trkpt>
      <trkpt lat="48.37126" lon="2.60698">
        <ele>122.22</ele>
        <time>2019-10-23T13:30:55Z</time>
      </trkpt>
      <trkpt lat="48.37127" lon="2.60694">
        <ele>123.67</ele>
        <time>2019-10-23T13:31:06Z</time>
      </trkpt>
      <trkpt lat="48.37127" lon="2.60692">
        <ele>126.55</ele>
        <time>2019-10-23T13:31:19Z</time>
      </trkpt>
      <trkpt lat="48.3713" lon="2.60695">
        <ele>125.11</ele>
        <time>2019-10-23T13:31:43Z</time>
      </trkpt>
      <trkpt lat="48.37129" lon="2.60694">
        <ele>127.03</ele>
        <time>2019-10-23T13:32:01Z</time>
      </trkpt>
      <trkpt lat="48.37131" lon="2.60692">
        <ele>127.03</ele>
        <time>2019-10-23T13:32:16Z</time>
      </trkpt>
      <trkpt lat="48.37132" lon="2.60691">
        <ele>126.55</ele>
        <time>2019-10-23T13:32:40Z</time>
      </trkpt>
      <trkpt lat="48.37134" lon="2.60687">
        <ele>125.59</ele>
        <time>2019-10-23T13:32:54Z</time>
      </trkpt>
      <trkpt lat="48.37131" lon="2.60691">
        <ele>123.19</ele>
        <time>2019-10-23T13:33:16Z</time>
      </trkpt>
      <trkpt lat="48.37128" lon="2.60691">
        <ele>120.3</ele>
        <time>2019-10-23T13:33:40Z</time>
      </trkpt>
      <trkpt lat="48.37122" lon="2.60696">
        <ele>121.74</ele>
        <time>2019-10-23T13:33:52Z</time>
      </trkpt>
      <trkpt lat="48.37115" lon="2.60699">
        <ele>121.74</ele>
        <time>2019-10-23T13:34:08Z</time>
      </trkpt>
      <trkpt lat="48.37111" lon="2.60694">
        <ele>122.22</ele>
        <time>2019-10-23T13:34:23Z</time>
      </trkpt>
      <trkpt lat="48.37108" lon="2.60685">
        <ele>122.22</ele>
        <time>2019-10-23T13:34:38Z</time>
      </trkpt>
      <trkpt lat="48.37104" lon="2.60683">
        <ele>123.19</ele>
        <time>2019-10-23T13:34:53Z</time>
      </trkpt>
      <trkpt lat="48.371" lon="2.60682">
        <ele>126.55</ele>
        <time>2019-10-23T13:35:14Z</time>
      </trkpt>
      <trkpt lat="48.37097" lon="2.60679">
        <ele>127.51</ele>
        <time>2019-10-23T13:35:28Z</time>
      </trkpt>
      <trkpt lat="48.37095" lon="2.60678">
        <ele>127.03</ele>
        <time>2019-10-23T13:35:48Z</time>
      </trkpt>
      <trkpt lat="48.37087" lon="2.60689">
        <ele>122.71</ele>
        <time>2019-10-23T13:36:08Z</time>
      </trkpt>
      <trkpt lat="48.37081" lon="2.60693">
        <ele>121.26</ele>
        <time>2019-10-23T13:36:23Z</time>
      </trkpt>
      <trkpt lat="48.37077" lon="2.60694">
        <ele>122.22</ele>
        <time>2019-10-23T13:36:43Z</time>
      </trkpt>
      <trkpt lat="48.37071" lon="2.60701">
        <ele>125.59</ele>
        <time>2019-10-23T13:36:56Z</time>
      </trkpt>
      <trkpt lat="48.37066" lon="2.60708">
        <ele>128.95</ele>
        <time>2019-10-23T13:37:11Z</time>
      </trkpt>
      <trkpt lat="48.37062" lon="2.60713">
        <ele>124.63</ele>
        <time>2019-10-23T13:37:24Z</time>
      </trkpt>
      <trkpt lat="48.37063" lon="2.60718">
        <ele>123.67</ele>
        <time>2019-10-23T13:37:40Z</time>
      </trkpt>
      <trkpt lat="48.37067" lon="2.6072">
        <ele>120.78</ele>
        <time>2019-10-23T13:37:57Z</time>
      </trkpt>
      <trkpt lat="48.37075" lon="2.60725">
        <ele>118.86</ele>
        <time>2019-10-23T13:38:11Z</time>
      </trkpt>
      <trkpt lat="48.37085" lon="2.60727">
        <ele>119.34</ele>
        <time>2019-10-23T13:38:25Z</time>
      </trkpt>
      <trkpt lat="48.37101" lon="2.60733">
        <ele>123.19</ele>
        <time>2019-10-23T13:38:40Z</time>
      </trkpt>
      <trkpt lat="48.3711" lon="2.60738">
        <ele>124.63</ele>
        <time>2019-10-23T13:38:56Z</time>
      </trkpt>
      <trkpt lat="48.37117" lon="2.60741">
        <ele>123.19</ele>
        <time>2019-10-23T13:39:10Z</time>
      </trkpt>
      <trkpt lat="48.37127" lon="2.60743">
        <ele>124.15</ele>
        <time>2019-10-23T13:39:26Z</time>
      </trkpt>
      <trkpt lat="48.3713" lon="2.60739">
        <ele>127.51</ele>
        <time>2019-10-23T13:39:44Z</time>
      </trkpt>
      <trkpt lat="48.37139" lon="2.60739">
        <ele>127.99</ele>
        <time>2019-10-23T13:39:59Z</time>
      </trkpt>
      <trkpt lat="48.37151" lon="2.60733">
        <ele>125.11</ele>
        <time>2019-10-23T13:40:11Z</time>
      </trkpt>
      <trkpt lat="48.37158" lon="2.60725">
        <ele>120.78</ele>
        <time>2019-10-23T13:40:25Z</time>
      </trkpt>
      <trkpt lat="48.37164" lon="2.60718">
        <ele>117.9</ele>
        <time>2019-10-23T13:40:38Z</time>
      </trkpt>
      <trkpt lat="48.37168" lon="2.60709">
        <ele>119.34</ele>
        <time>2019-10-23T13:40:50Z</time>
      </trkpt>
      <trkpt lat="48.37173" lon="2.60701">
        <ele>118.86</ele>
        <time>2019-10-23T13:41:01Z</time>
      </trkpt>
      <trkpt lat="48.37179" lon="2.60686">
        <ele>119.82</ele>
        <time>2019-10-23T13:41:16Z</time>
      </trkpt>
      <trkpt lat="48.37185" lon="2.60673">
        <ele>116.94</ele>
        <time>2019-10-23T13:41:29Z</time>
      </trkpt>
      <trkpt lat="48.37192" lon="2.60658">
        <ele>115.5</ele>
        <time>2019-10-23T13:41:44Z</time>
      </trkpt>
      <trkpt lat="48.37196" lon="2.60641">
        <ele>116.46</ele>
        <time>2019-10-23T13:41:59Z</time>
      </trkpt>
      <trkpt lat="48.37199" lon="2.60627">
        <ele>114.05</ele>
        <time>2019-10-23T13:42:12Z</time>
      </trkpt>
      <trkpt lat="48.37205" lon="2.60618">
        <ele>112.61</ele>
        <time>2019-10-23T13:42:23Z</time>
      </trkpt>
      <trkpt lat="48.37211" lon="2.60603">
        <ele>107.81</ele>
        <time>2019-10-23T13:42:39Z</time>
      </trkpt>
      <trkpt lat="48.37212" lon="2.60587">
        <ele>105.4</ele>
        <time>2019-10-23T13:42:53Z</time>
      </trkpt>
      <trkpt lat="48.37216" lon="2.6057">
        <ele>107.32</ele>
        <time>2019-10-23T13:43:07Z</time>
      </trkpt>
      <trkpt lat="48.37223" lon="2.60554">
        <ele>106.84</ele>
        <time>2019-10-23T13:43:21Z</time>
      </trkpt>
      <trkpt lat="48.37229" lon="2.60546">
        <ele>103</ele>
        <time>2019-10-23T13:43:33Z</time>
      </trkpt>
      <trkpt lat="48.37237" lon="2.60537">
        <ele>103</ele>
        <time>2019-10-23T13:43:44Z</time>
      </trkpt>
      <trkpt lat="48.37246" lon="2.60523">
        <ele>105.88</ele>
        <time>2019-10-23T13:43:59Z</time>
      </trkpt>
      <trkpt lat="48.37253" lon="2.60512">
        <ele>108.29</ele>
        <time>2019-10-23T13:44:12Z</time>
      </trkpt>
      <trkpt lat="48.3726" lon="2.60498">
        <ele>106.84</ele>
        <time>2019-10-23T13:44:27Z</time>
      </trkpt>
      <trkpt lat="48.37268" lon="2.60489">
        <ele>105.88</ele>
        <time>2019-10-23T13:44:43Z</time>
      </trkpt>
      <trkpt lat="48.37278" lon="2.60483">
        <ele>106.84</ele>
        <time>2019-10-23T13:44:57Z</time>
      </trkpt>
      <trkpt lat="48.3729" lon="2.60478">
        <ele>108.77</ele>
        <time>2019-10-23T13:45:10Z</time>
      </trkpt>
      <trkpt lat="48.37301" lon="2.60475">
        <ele>109.25</ele>
        <time>2019-10-23T13:45:24Z</time>
      </trkpt>
      <trkpt lat="48.3731" lon="2.60469">
        <ele>111.17</ele>
        <time>2019-10-23T13:45:37Z</time>
      </trkpt>
      <trkpt lat="48.37322" lon="2.60462">
        <ele>115.5</ele>
        <time>2019-10-23T13:45:51Z</time>
      </trkpt>
      <trkpt lat="48.37327" lon="2.60461">
        <ele>113.57</ele>
        <time>2019-10-23T13:46:07Z</time>
      </trkpt>
      <trkpt lat="48.37331" lon="2.60478">
        <ele>114.05</ele>
        <time>2019-10-23T13:46:35Z</time>
      </trkpt>
      <trkpt lat="48.37324" lon="2.6049">
        <ele>115.01</ele>
        <time>2019-10-23T13:46:53Z</time>
      </trkpt>
      <trkpt lat="48.37319" lon="2.60499">
        <ele>112.13</ele>
        <time>2019-10-23T13:47:09Z</time>
      </trkpt>
      <trkpt lat="48.37314" lon="2.60516">
        <ele>107.32</ele>
        <time>2019-10-23T13:47:27Z</time>
      </trkpt>
      <trkpt lat="48.37308" lon="2.60528">
        <ele>103.48</ele>
        <time>2019-10-23T13:47:44Z</time>
      </trkpt>
      <trkpt lat="48.37305" lon="2.60534">
        <ele>103.48</ele>
        <time>2019-10-23T13:48:01Z</time>
      </trkpt>
      <trkpt lat="48.37305" lon="2.60542">
        <ele>108.77</ele>
        <time>2019-10-23T13:48:14Z</time>
      </trkpt>
      <trkpt lat="48.37301" lon="2.60555">
        <ele>111.17</ele>
        <time>2019-10-23T13:48:27Z</time>
      </trkpt>
      <trkpt lat="48.37297" lon="2.60565">
        <ele>109.73</ele>
        <time>2019-10-23T13:48:41Z</time>
      </trkpt>
      <trkpt lat="48.37291" lon="2.60584">
        <ele>113.09</ele>
        <time>2019-10-23T13:48:55Z</time>
      </trkpt>
      <trkpt lat="48.37289" lon="2.60593">
        <ele>109.73</ele>
        <time>2019-10-23T13:49:06Z</time>
      </trkpt>
      <trkpt lat="48.37286" lon="2.606">
        <ele>106.84</ele>
        <time>2019-10-23T13:49:18Z</time>
      </trkpt>
      <trkpt lat="48.37281" lon="2.60613">
        <ele>106.36</ele>
        <time>2019-10-23T13:49:33Z</time>
      </trkpt>
      <trkpt lat="48.37274" lon="2.60629">
        <ele>103.48</ele>
        <time>2019-10-23T13:49:48Z</time>
      </trkpt>
      <trkpt lat="48.37268" lon="2.60643">
        <ele>102.04</ele>
        <time>2019-10-23T13:50:04Z</time>
      </trkpt>
      <trkpt lat="48.37262" lon="2.60661">
        <ele>104.44</ele>
        <time>2019-10-23T13:50:20Z</time>
      </trkpt>
      <trkpt lat="48.37258" lon="2.60673">
        <ele>97.71</ele>
        <time>2019-10-23T13:50:36Z</time>
      </trkpt>
      <trkpt lat="48.37254" lon="2.60688">
        <ele>91.94</ele>
        <time>2019-10-23T13:50:52Z</time>
      </trkpt>
      <trkpt lat="48.3725" lon="2.60695">
        <ele>88.1</ele>
        <time>2019-10-23T13:51:06Z</time>
      </trkpt>
      <trkpt lat="48.37245" lon="2.60707">
        <ele>85.69</ele>
        <time>2019-10-23T13:51:26Z</time>
      </trkpt>
      <trkpt lat="48.37239" lon="2.60726">
        <ele>85.21</ele>
        <time>2019-10-23T13:51:43Z</time>
      </trkpt>
      <trkpt lat="48.37234" lon="2.60744">
        <ele>87.14</ele>
        <time>2019-10-23T13:51:58Z</time>
      </trkpt>
      <trkpt lat="48.3723" lon="2.60755">
        <ele>81.85</ele>
        <time>2019-10-23T13:52:11Z</time>
      </trkpt>
      <trkpt lat="48.37228" lon="2.60767">
        <ele>80.89</ele>
        <time>2019-10-23T13:52:22Z</time>
      </trkpt>
      <trkpt lat="48.3722" lon="2.60787">
        <ele>81.37</ele>
        <time>2019-10-23T13:52:36Z</time>
      </trkpt>
      <trkpt lat="48.37216" lon="2.60799">
        <ele>82.81</ele>
        <time>2019-10-23T13:52:49Z</time>
      </trkpt>
      <trkpt lat="48.3721" lon="2.60812">
        <ele>85.21</ele>
        <time>2019-10-23T13:53:02Z</time>
      </trkpt>
      <trkpt lat="48.37206" lon="2.60824">
        <ele>85.21</ele>
        <time>2019-10-23T13:53:16Z</time>
      </trkpt>
      <trkpt lat="48.37199" lon="2.60844">
        <ele>90.98</ele>
        <time>2019-10-23T13:53:31Z</time>
      </trkpt>
      <trkpt lat="48.37196" lon="2.60858">
        <ele>86.18</ele>
        <time>2019-10-23T13:53:46Z</time>
      </trkpt>
      <trkpt lat="48.37187" lon="2.60882">
        <ele>90.98</ele>
        <time>2019-10-23T13:54:00Z</time>
      </trkpt>
      <trkpt lat="48.37179" lon="2.60901">
        <ele>91.94</ele>
        <time>2019-10-23T13:54:14Z</time>
      </trkpt>
      <trkpt lat="48.37172" lon="2.60918">
        <ele>90.98</ele>
        <time>2019-10-23T13:54:30Z</time>
      </trkpt>
      <trkpt lat="48.37168" lon="2.60929">
        <ele>89.54</ele>
        <time>2019-10-23T13:54:44Z</time>
      </trkpt>
      <trkpt lat="48.37162" lon="2.60945">
        <ele>96.27</ele>
        <time>2019-10-23T13:54:58Z</time>
      </trkpt>
      <trkpt lat="48.37158" lon="2.60957">
        <ele>97.23</ele>
        <time>2019-10-23T13:55:10Z</time>
      </trkpt>
      <trkpt lat="48.37155" lon="2.60969">
        <ele>95.31</ele>
        <time>2019-10-23T13:55:22Z</time>
      </trkpt>
      <trkpt lat="48.37151" lon="2.60982">
        <ele>93.39</ele>
        <time>2019-10-23T13:55:37Z</time>
      </trkpt>
      <trkpt lat="48.37145" lon="2.60994">
        <ele>100.11</ele>
        <time>2019-10-23T13:55:49Z</time>
      </trkpt>
      <trkpt lat="48.37141" lon="2.61006">
        <ele>99.15</ele>
        <time>2019-10-23T13:56:02Z</time>
      </trkpt>
      <trkpt lat="48.37137" lon="2.61017">
        <ele>97.71</ele>
        <time>2019-10-23T13:56:15Z</time>
      </trkpt>
      <trkpt lat="48.37131" lon="2.61035">
        <ele>104.44</ele>
        <time>2019-10-23T13:56:31Z</time>
      </trkpt>
      <trkpt lat="48.37126" lon="2.61049">
        <ele>115.5</ele>
        <time>2019-10-23T13:56:44Z</time>
      </trkpt>
      <trkpt lat="48.37121" lon="2.61062">
        <ele>114.53</ele>
        <time>2019-10-23T13:56:58Z</time>
      </trkpt>
      <trkpt lat="48.37116" lon="2.61072">
        <ele>115.01</ele>
        <time>2019-10-23T13:57:09Z</time>
      </trkpt>
      <trkpt lat="48.3711" lon="2.61086">
        <ele>115.01</ele>
        <time>2019-10-23T13:57:23Z</time>
      </trkpt>
      <trkpt lat="48.37113" lon="2.61094">
        <ele>111.65</ele>
        <time>2019-10-23T13:57:36Z</time>
      </trkpt>
      <trkpt lat="48.37117" lon="2.61103">
        <ele>108.29</ele>
        <time>2019-10-23T13:58:01Z</time>
      </trkpt>
      <trkpt lat="48.37123" lon="2.61119">
        <ele>110.21</ele>
        <time>2019-10-23T13:58:16Z</time>
      </trkpt>
      <trkpt lat="48.37134" lon="2.6113">
        <ele>113.57</ele>
        <time>2019-10-23T13:58:34Z</time>
      </trkpt>
      <trkpt lat="48.37141" lon="2.6114">
        <ele>116.94</ele>
        <time>2019-10-23T13:58:47Z</time>
      </trkpt>
      <trkpt lat="48.37148" lon="2.6115">
        <ele>116.94</ele>
        <time>2019-10-23T13:59:01Z</time>
      </trkpt>
      <trkpt lat="48.37159" lon="2.61162">
        <ele>115.5</ele>
        <time>2019-10-23T13:59:16Z</time>
      </trkpt>
      <trkpt lat="48.37167" lon="2.61172">
        <ele>114.53</ele>
        <time>2019-10-23T13:59:30Z</time>
      </trkpt>
      <trkpt lat="48.37174" lon="2.6118">
        <ele>116.46</ele>
        <time>2019-10-23T13:59:43Z</time>
      </trkpt>
      <trkpt lat="48.37182" lon="2.61192">
        <ele>117.9</ele>
        <time>2019-10-23T13:59:55Z</time>
      </trkpt>
      <trkpt lat="48.37191" lon="2.61202">
        <ele>117.42</ele>
        <time>2019-10-23T14:00:07Z</time>
      </trkpt>
      <trkpt lat="48.37196" lon="2.6121">
        <ele>115.98</ele>
        <time>2019-10-23T14:00:17Z</time>
      </trkpt>
      <trkpt lat="48.37205" lon="2.6122">
        <ele>112.13</ele>
        <time>2019-10-23T14:00:31Z</time>
      </trkpt>
      <trkpt lat="48.37213" lon="2.61231">
        <ele>111.65</ele>
        <time>2019-10-23T14:00:46Z</time>
      </trkpt>
      <trkpt lat="48.37224" lon="2.61245">
        <ele>110.69</ele>
        <time>2019-10-23T14:01:00Z</time>
      </trkpt>
      <trkpt lat="48.37235" lon="2.61257">
        <ele>115.01</ele>
        <time>2019-10-23T14:01:15Z</time>
      </trkpt>
      <trkpt lat="48.37242" lon="2.61269">
        <ele>111.65</ele>
        <time>2019-10-23T14:01:29Z</time>
      </trkpt>
      <trkpt lat="48.37248" lon="2.6128">
        <ele>110.21</ele>
        <time>2019-10-23T14:01:40Z</time>
      </trkpt>
      <trkpt lat="48.37258" lon="2.61291">
        <ele>107.81</ele>
        <time>2019-10-23T14:01:54Z</time>
      </trkpt>
      <trkpt lat="48.37266" lon="2.613">
        <ele>110.21</ele>
        <time>2019-10-23T14:02:05Z</time>
      </trkpt>
      <trkpt lat="48.37276" lon="2.61315">
        <ele>107.32</ele>
        <time>2019-10-23T14:02:23Z</time>
      </trkpt>
      <trkpt lat="48.37286" lon="2.6133">
        <ele>104.92</ele>
        <time>2019-10-23T14:02:40Z</time>
      </trkpt>
      <trkpt lat="48.37298" lon="2.61344">
        <ele>98.19</ele>
        <time>2019-10-23T14:02:55Z</time>
      </trkpt>
      <trkpt lat="48.37306" lon="2.61351">
        <ele>104.92</ele>
        <time>2019-10-23T14:03:06Z</time>
      </trkpt>
      <trkpt lat="48.37316" lon="2.61362">
        <ele>105.4</ele>
        <time>2019-10-23T14:03:20Z</time>
      </trkpt>
      <trkpt lat="48.37318" lon="2.61363">
        <ele>105.88</ele>
        <time>2019-10-23T14:03:22Z</time>
      </trkpt>
      <trkpt lat="48.37326" lon="2.61374">
        <ele>108.77</ele>
        <time>2019-10-23T14:03:36Z</time>
      </trkpt>
      <trkpt lat="48.37333" lon="2.61385">
        <ele>108.29</ele>
        <time>2019-10-23T14:03:50Z</time>
      </trkpt>
      <trkpt lat="48.37339" lon="2.6139">
        <ele>107.81</ele>
        <time>2019-10-23T14:04:01Z</time>
      </trkpt>
      <trkpt lat="48.37352" lon="2.61409">
        <ele>106.84</ele>
        <time>2019-10-23T14:04:22Z</time>
      </trkpt>
      <trkpt lat="48.3736" lon="2.61421">
        <ele>105.4</ele>
        <time>2019-10-23T14:04:35Z</time>
      </trkpt>
      <trkpt lat="48.37369" lon="2.61434">
        <ele>104.44</ele>
        <time>2019-10-23T14:04:51Z</time>
      </trkpt>
      <trkpt lat="48.37381" lon="2.61445">
        <ele>110.21</ele>
        <time>2019-10-23T14:05:05Z</time>
      </trkpt>
      <trkpt lat="48.37393" lon="2.61457">
        <ele>120.3</ele>
        <time>2019-10-23T14:05:24Z</time>
      </trkpt>
      <trkpt lat="48.37401" lon="2.61469">
        <ele>120.78</ele>
        <time>2019-10-23T14:05:36Z</time>
      </trkpt>
      <trkpt lat="48.37406" lon="2.61478">
        <ele>120.78</ele>
        <time>2019-10-23T14:05:50Z</time>
      </trkpt>
      <trkpt lat="48.37419" lon="2.61492">
        <ele>119.34</ele>
        <time>2019-10-23T14:06:05Z</time>
      </trkpt>
      <trkpt lat="48.37428" lon="2.61503">
        <ele>118.86</ele>
        <time>2019-10-23T14:06:19Z</time>
      </trkpt>
      <trkpt lat="48.37436" lon="2.61514">
        <ele>115.98</ele>
        <time>2019-10-23T14:06:36Z</time>
      </trkpt>
      <trkpt lat="48.37446" lon="2.6153">
        <ele>110.69</ele>
        <time>2019-10-23T14:06:53Z</time>
      </trkpt>
      <trkpt lat="48.37461" lon="2.61546">
        <ele>111.65</ele>
        <time>2019-10-23T14:07:09Z</time>
      </trkpt>
      <trkpt lat="48.37471" lon="2.6156">
        <ele>110.69</ele>
        <time>2019-10-23T14:07:23Z</time>
      </trkpt>
      <trkpt lat="48.37479" lon="2.61568">
        <ele>115.5</ele>
        <time>2019-10-23T14:07:36Z</time>
      </trkpt>
      <trkpt lat="48.37484" lon="2.61578">
        <ele>111.17</ele>
        <time>2019-10-23T14:07:51Z</time>
      </trkpt>
      <trkpt lat="48.37498" lon="2.61594">
        <ele>102.52</ele>
        <time>2019-10-23T14:08:10Z</time>
      </trkpt>
      <trkpt lat="48.3751" lon="2.61608">
        <ele>99.63</ele>
        <time>2019-10-23T14:08:25Z</time>
      </trkpt>
      <trkpt lat="48.37521" lon="2.61623">
        <ele>96.75</ele>
        <time>2019-10-23T14:08:45Z</time>
      </trkpt>
      <trkpt lat="48.37532" lon="2.61636">
        <ele>93.87</ele>
        <time>2019-10-23T14:09:02Z</time>
      </trkpt>
      <trkpt lat="48.37541" lon="2.61646">
        <ele>92.42</ele>
        <time>2019-10-23T14:09:16Z</time>
      </trkpt>
      <trkpt lat="48.37548" lon="2.61661">
        <ele>93.39</ele>
        <time>2019-10-23T14:09:38Z</time>
      </trkpt>
      <trkpt lat="48.37548" lon="2.61676">
        <ele>90.98</ele>
        <time>2019-10-23T14:09:54Z</time>
      </trkpt>
      <trkpt lat="48.37546" lon="2.61695">
        <ele>95.31</ele>
        <time>2019-10-23T14:10:08Z</time>
      </trkpt>
      <trkpt lat="48.37546" lon="2.61711">
        <ele>103.96</ele>
        <time>2019-10-23T14:10:21Z</time>
      </trkpt>
      <trkpt lat="48.37546" lon="2.61729">
        <ele>105.4</ele>
        <time>2019-10-23T14:10:36Z</time>
      </trkpt>
      <trkpt lat="48.37547" lon="2.6174">
        <ele>94.35</ele>
        <time>2019-10-23T14:10:50Z</time>
      </trkpt>
      <trkpt lat="48.37548" lon="2.61752">
        <ele>85.21</ele>
        <time>2019-10-23T14:11:03Z</time>
      </trkpt>
      <trkpt lat="48.3755" lon="2.61767">
        <ele>75.6</ele>
        <time>2019-10-23T14:11:16Z</time>
      </trkpt>
      <trkpt lat="48.37552" lon="2.61781">
        <ele>68.39</ele>
        <time>2019-10-23T14:11:28Z</time>
      </trkpt>
      <trkpt lat="48.37551" lon="2.61795">
        <ele>63.58</ele>
        <time>2019-10-23T14:11:42Z</time>
      </trkpt>
      <trkpt lat="48.37552" lon="2.61813">
        <ele>61.66</ele>
        <time>2019-10-23T14:11:55Z</time>
      </trkpt>
      <trkpt lat="48.3755" lon="2.61833">
        <ele>57.34</ele>
        <time>2019-10-23T14:12:08Z</time>
      </trkpt>
      <trkpt lat="48.37552" lon="2.61849">
        <ele>50.13</ele>
        <time>2019-10-23T14:12:20Z</time>
      </trkpt>
      <trkpt lat="48.37551" lon="2.61866">
        <ele>46.76</ele>
        <time>2019-10-23T14:12:34Z</time>
      </trkpt>
      <trkpt lat="48.37552" lon="2.6188">
        <ele>47.24</ele>
        <time>2019-10-23T14:12:49Z</time>
      </trkpt>
      <trkpt lat="48.37554" lon="2.6191">
        <ele>37.15</ele>
        <time>2019-10-23T14:13:07Z</time>
      </trkpt>
      <trkpt lat="48.37556" lon="2.61935">
        <ele>24.65</ele>
        <time>2019-10-23T14:13:25Z</time>
      </trkpt>
      <trkpt lat="48.37562" lon="2.61968">
        <ele>12.15</ele>
        <time>2019-10-23T14:13:43Z</time>
      </trkpt>
      <trkpt lat="48.37562" lon="2.61999">
        <ele>0.14</ele>
        <time>2019-10-23T14:14:04Z</time>
      </trkpt>
      <trkpt lat="48.37567" lon="2.62019">
        <ele>-10.92</ele>
        <time>2019-10-23T14:14:22Z</time>
      </trkpt>
      <trkpt lat="48.37571" lon="2.62035">
        <ele>-22.93</ele>
        <time>2019-10-23T14:14:37Z</time>
      </trkpt>
      <trkpt lat="48.37576" lon="2.62054">
        <ele>-37.83</ele>
        <time>2019-10-23T14:14:56Z</time>
      </trkpt>
      <trkpt lat="48.37573" lon="2.62086">
        <ele>-46.01</ele>
        <time>2019-10-23T14:15:15Z</time>
      </trkpt>
      <trkpt lat="48.37576" lon="2.621">
        <ele>-51.77</ele>
        <time>2019-10-23T14:15:29Z</time>
      </trkpt>
      <trkpt lat="48.37575" lon="2.62121">
        <ele>-54.66</ele>
        <time>2019-10-23T14:15:45Z</time>
      </trkpt>
      <trkpt lat="48.37571" lon="2.62143">
        <ele>-55.14</ele>
        <time>2019-10-23T14:16:03Z</time>
      </trkpt>
      <trkpt lat="48.37571" lon="2.62168">
        <ele>-46.97</ele>
        <time>2019-10-23T14:16:16Z</time>
      </trkpt>
      <trkpt lat="48.37572" lon="2.62192">
        <ele>-29.18</ele>
        <time>2019-10-23T14:16:34Z</time>
      </trkpt>
      <trkpt lat="48.37574" lon="2.62204">
        <ele>-39.76</ele>
        <time>2019-10-23T14:16:53Z</time>
      </trkpt>
      <trkpt lat="48.37573" lon="2.62219">
        <ele>-45.04</ele>
        <time>2019-10-23T14:17:06Z</time>
      </trkpt>
      <trkpt lat="48.37567" lon="2.62243">
        <ele>-31.59</ele>
        <time>2019-10-23T14:17:23Z</time>
      </trkpt>
      <trkpt lat="48.37567" lon="2.62259">
        <ele>-31.59</ele>
        <time>2019-10-23T14:17:38Z</time>
      </trkpt>
      <trkpt lat="48.37568" lon="2.62271">
        <ele>-32.07</ele>
        <time>2019-10-23T14:17:51Z</time>
      </trkpt>
      <trkpt lat="48.37569" lon="2.62292">
        <ele>-24.38</ele>
        <time>2019-10-23T14:18:06Z</time>
      </trkpt>
      <trkpt lat="48.37558" lon="2.62314">
        <ele>-7.55</ele>
        <time>2019-10-23T14:18:23Z</time>
      </trkpt>
      <trkpt lat="48.37555" lon="2.62325">
        <ele>35.71</ele>
        <time>2019-10-23T14:18:37Z</time>
      </trkpt>
    </trkseg>
  </trk>
</gpx>